To NAV CANADA Home Page Login to a new session Search on AWWS site Feedback and Comments Disclaimer Vers la page française équivalente Tips FAQ What's new on the site To the Forecasts and Observations / NOTAM section To "File a Flight Plan" website Publications and other links Update of the User's profile FIC Telephone Numbers My Weather Data Folder Route Weather Data Regional Weather Data Local Weather Data To the Forecasts and Observations / NOTAM section
Request Generated 10/01/2016 at 01:28:00 UTC . Weather information available at that time is displayed.

METAR/TAF

KINGSTON/ON    

METAR CYGK 010100Z 05008KT 15SM OVC089 15/10 A3034 RMK AC8 SLP275=
METAR CYGK 010000Z 06006KT 15SM BKN096 15/10 A3034 RMK AC7 SLP276=
METAR CYGK 302300Z 06008KT 15SM VCSH BKN100 15/10 A3034 RMK AC7
SLP276=

TAF CYGK 301938Z 3020/0103 05010KT P6SM OVC110 TEMPO 3020/3023 P6SM
-RA
RMK NXT FCST WILL BE ISSUED AT 011145Z=
Your time UTC time
Weather data provided by Environment Canada and NAV CANADA